Airfield :
LOGIN :

Register | Disclaimer

   EN    FR    IT 

 










Legend :    VFR   Marginal VFR   IFR   Intensive IFR   Very Intensive IFR
Visi :
Ceiling :
>= 8 km
>= 3000ft
5 to 8 km
1000 to 3000 ft
1500m to 5 km
500 to 1000 ft
800 to 1500m
200 to 500 ft
< 800m
< 200 ft
Symbols :   Thunderstorms  Fog  Heavy snow  Heavy precipitations  Wind > 20 kt
SIGMETs :     Misc.  Thunderstorms  Icing  Turbulence  Mountain Waves  Volcanic Ashes







- Airport Elevation : 1058 ft
- IATA code : SCN


EDDR - Saarbrücken

EXPIRED METARs :
  • 241420Z 29012G23KT 250V320 CAVOK 24/12 Q1017 TEMPO 27015G25KT
  • 241350Z 27013KT 240V300 CAVOK 23/11 Q1017 TEMPO 27015G25KT
  • 241320Z 27013KT 220V300 CAVOK 23/12 Q1018 TEMPO 27015G25KT
  • 241250Z 26014KT 230V290 CAVOK 23/11 Q1018 TEMPO 27015G25KT
  • 241220Z 26013KT 220V300 CAVOK 22/11 Q1018 TEMPO 27015G25KT
  • 241150Z 27012KT 240V300 9999 SCT048 21/11 Q1018 TEMPO 27015G25KT

TAF TAF EDDR
Valid from the 24 at 12:00 until the 25 at 12:00 UTC


241100Z 2412/2512 26012KT 9999 SCT040
TEMPO 2412/2416 26015G25KT
BECMG 2418/2420 27005KT
BECMG 2506/2509 25012KT
TEMPO 2510/2512 26015G25KT
No reported NOTAMs for that airfield.



MET'MAP, your aeronautical weather chart ! - Copyright ORBIFLY December 2007 - Disclaimer

ORBIFLY MET'MAP TEAM :

Programming & Development : Alexandra Zaïnal
Concept & Development : Baudouin d'Aumeries
Co-Development & Prog : Marc-Olivier Méhu
Technical & hardware support : Manuel Goepfert

Contact : metmap@orbifly.com




SOURCES & CREDITS :

   NOAA